createdAt,value
2023-04-18T00:04:41.976Z,72.45
2023-04-18T00:09:43.301Z,72.17
2023-04-18T00:14:44.618Z,72.38
2023-04-18T00:19:46.262Z,72.58
2023-04-18T00:24:47.524Z,72.16
2023-04-18T00:29:48.809Z,72.63
2023-04-18T00:34:50.067Z,72.45
2023-04-18T00:39:53.794Z,72.06
2023-04-18T00:44:55.082Z,72.90
2023-04-18T00:49:56.626Z,72.49
2023-04-18T00:54:57.986Z,72.55
2023-04-18T00:59:59.381Z,72.01
2023-04-18T01:05:00.622Z,71.81
2023-04-18T01:10:02.025Z,72.55
2023-04-18T01:15:03.851Z,73.09
2023-04-18T01:20:06.365Z,72.97
2023-04-18T01:25:07.593Z,72.65
2023-04-18T01:30:08.881Z,72.64
2023-04-18T01:35:10.124Z,72.00
2023-04-18T01:40:11.424Z,72.16
2023-04-18T01:45:13.181Z,71.44
2023-04-18T01:50:14.503Z,71.93
2023-04-18T01:55:15.904Z,72.09
2023-04-18T02:00:17.309Z,71.84
2023-04-18T02:05:18.593Z,71.72
2023-04-18T02:10:20.047Z,72.08
2023-04-18T02:15:21.377Z,72.14
2023-04-18T02:20:22.678Z,73.75
2023-04-18T02:25:26.836Z,74.64
2023-04-18T02:30:28.059Z,74.38
2023-04-18T02:35:29.274Z,74.83
2023-04-18T02:40:30.487Z,75.42
2023-04-18T02:45:32.729Z,75.46
2023-04-18T02:50:35.478Z,74.62
2023-04-18T02:55:36.751Z,74.20
2023-04-18T03:00:38.046Z,73.60
2023-04-18T03:05:39.922Z,73.85
2023-04-18T03:10:41.284Z,74.53
2023-04-18T03:15:42.828Z,75.70
2023-04-18T03:20:44.116Z,76.78
2023-04-18T03:25:45.375Z,77.36
2023-04-18T03:30:46.620Z,77.99
2023-04-18T03:35:47.860Z,76.30
2023-04-18T03:40:49.203Z,77.27
2023-04-18T03:45:50.652Z,76.96
2023-04-18T03:50:51.927Z,76.98
2023-04-18T03:55:53.357Z,77.32
2023-04-18T04:00:54.580Z,77.39
2023-04-18T04:05:55.965Z,78.21
2023-04-18T04:10:57.211Z,76.92
2023-04-18T04:15:58.477Z,77.59
2023-04-18T04:20:59.764Z,79.03
2023-04-18T04:26:04.533Z,77.88
2023-04-18T04:31:06.805Z,77.26
2023-04-18T04:36:08.933Z,77.12
2023-04-18T04:41:10.220Z,75.72
2023-04-18T04:46:13.677Z,76.15
2023-04-18T04:51:15.137Z,75.45
2023-04-18T04:56:16.421Z,76.77
2023-04-18T05:01:18.004Z,76.46
2023-04-18T05:06:22.069Z,76.50
2023-04-18T05:11:23.293Z,77.06
2023-04-18T05:16:24.576Z,78.25
2023-04-18T05:21:27.352Z,78.54
2023-04-18T05:26:28.680Z,78.80
2023-04-18T05:31:29.999Z,78.42
2023-04-18T05:36:31.770Z,78.89
2023-04-18T05:41:33.225Z,78.93
2023-04-18T05:46:34.669Z,78.54
2023-04-18T05:51:36.016Z,78.93
2023-04-18T05:56:37.225Z,79.24
2023-04-18T06:01:38.452Z,79.63
2023-04-18T06:06:39.661Z,78.72
2023-04-18T06:11:40.871Z,78.44
2023-04-18T06:16:42.163Z,77.72
2023-04-18T06:21:43.641Z,76.72
2023-04-18T06:26:44.990Z,77.09
2023-04-18T06:31:48.167Z,77.00
2023-04-18T06:36:49.517Z,76.43
2023-04-18T06:41:50.876Z,76.93
2023-04-18T06:46:52.500Z,75.51
2023-04-18T06:51:53.791Z,75.34
2023-04-18T06:56:55.110Z,75.80
2023-04-18T07:01:56.443Z,75.32
2023-04-18T07:06:57.771Z,75.06
2023-04-18T07:11:59.097Z,75.24
2023-04-18T07:17:00.928Z,75.80
2023-04-18T07:22:02.283Z,76.36
2023-04-18T07:27:03.774Z,76.63
2023-04-18T07:32:06.191Z,77.08
2023-04-18T07:37:09.368Z,77.79
2023-04-18T07:42:11.416Z,77.52
2023-04-18T07:47:12.880Z,77.70
2023-04-18T07:52:15.990Z,76.79
2023-04-18T07:57:17.517Z,75.52
2023-04-18T08:02:19.758Z,75.29
2023-04-18T08:07:21.167Z,74.91
2023-04-18T08:12:22.661Z,73.84
2023-04-18T08:17:23.991Z,73.30
2023-04-18T08:22:25.358Z,72.77
2023-04-18T08:27:26.580Z,71.95
2023-04-18T08:32:27.923Z,70.66
2023-04-18T08:37:29.261Z,71.14
2023-04-18T08:42:30.486Z,71.48
2023-04-18T08:47:31.798Z,71.64
2023-04-18T08:52:34.198Z,71.42
2023-04-18T08:57:35.491Z,70.48
2023-04-18T09:02:42.834Z,69.66
2023-04-18T09:07:44.358Z,70.02
2023-04-18T09:12:52.176Z,70.58
2023-04-18T09:17:53.959Z,70.67
2023-04-18T09:22:58.075Z,70.98
2023-04-18T09:28:00.878Z,70.55
2023-04-18T09:33:04.833Z,68.85
2023-04-18T09:38:06.187Z,69.27
2023-04-18T09:43:08.627Z,68.99
2023-04-18T09:48:09.929Z,69.46
2023-04-18T09:53:11.255Z,69.15
2023-04-18T09:58:12.476Z,69.19
2023-04-18T10:03:13.782Z,69.20
2023-04-18T10:08:16.050Z,67.81
2023-04-18T10:13:17.308Z,68.23
2023-04-18T10:18:18.552Z,68.36
2023-04-18T10:23:19.856Z,67.74
2023-04-18T10:28:21.418Z,66.00
2023-04-18T10:33:30.318Z,67.30
2023-04-18T10:38:33.475Z,66.15
2023-04-18T10:43:34.785Z,66.77
2023-04-18T10:48:39.062Z,67.06
2023-04-18T10:53:40.432Z,66.77
2023-04-18T10:58:41.924Z,65.45
2023-04-18T11:03:43.366Z,64.28
2023-04-18T11:08:44.741Z,64.73
2023-04-18T11:13:46.232Z,63.55
2023-04-18T11:18:47.501Z,64.80
2023-04-18T11:23:48.822Z,63.14
2023-04-18T11:28:50.338Z,62.22
2023-04-18T11:33:51.585Z,62.13
2023-04-18T11:38:52.850Z,61.69
2023-04-18T11:43:54.353Z,60.84
2023-04-18T11:48:55.728Z,60.33
2023-04-18T11:53:56.978Z,59.15
2023-04-18T11:58:58.287Z,59.50
2023-04-18T12:03:59.783Z,60.01
2023-04-18T12:09:01.347Z,60.84
2023-04-18T12:14:04.211Z,59.95
2023-04-18T12:19:05.529Z,59.21
2023-04-18T12:24:06.869Z,56.24
2023-04-18T12:29:08.243Z,51.61
2023-04-18T12:34:09.662Z,51.33
2023-04-18T12:39:11.018Z,53.71
2023-04-18T12:44:12.874Z,55.01
2023-04-18T12:49:14.277Z,55.33
2023-04-18T12:54:15.630Z,55.31
2023-04-18T12:59:17.178Z,54.17
2023-04-18T13:04:18.735Z,54.72
2023-04-18T13:09:20.282Z,54.91
2023-04-18T13:14:21.523Z,53.94
2023-04-18T13:19:22.853Z,54.36
2023-04-18T13:24:24.177Z,55.11
2023-04-18T13:29:25.538Z,55.02
2023-04-18T13:34:26.831Z,54.37
2023-04-18T13:39:28.131Z,55.10
2023-04-18T13:44:29.513Z,53.23
2023-04-18T13:49:30.914Z,53.65
2023-04-18T13:54:32.231Z,52.86
2023-04-18T13:59:33.476Z,51.80
2023-04-18T14:04:34.936Z,51.38
2023-04-18T14:09:36.306Z,56.29
2023-04-18T14:14:37.588Z,52.41
2023-04-18T14:19:38.906Z,54.09
2023-04-18T14:24:40.424Z,53.89
2023-04-18T14:29:41.690Z,54.64
2023-04-18T14:34:42.912Z,56.92
2023-04-18T14:39:44.192Z,58.29
2023-04-18T14:44:45.969Z,56.74
2023-04-18T14:49:47.228Z,57.15
2023-04-18T14:54:48.642Z,57.48
2023-04-18T14:59:50.966Z,58.02
2023-04-18T15:04:54.344Z,58.87
2023-04-18T15:09:55.914Z,62.45
2023-04-18T15:14:57.221Z,58.14
2023-04-18T15:19:58.465Z,57.76
2023-04-18T15:24:59.772Z,59.43
2023-04-18T15:30:02.289Z,60.65
2023-04-18T15:35:03.522Z,61.89
2023-04-18T15:40:06.865Z,61.17
2023-04-18T15:45:08.147Z,61.43
2023-04-18T15:50:09.434Z,62.14
2023-04-18T15:55:10.697Z,61.42
2023-04-18T16:00:19.628Z,61.65
2023-04-18T16:05:20.942Z,61.93
2023-04-18T16:10:22.204Z,60.70
2023-04-18T16:15:23.456Z,59.48
2023-04-18T16:20:27.052Z,60.53
2023-04-18T16:25:28.296Z,61.71
2023-04-18T16:30:29.658Z,61.38
2023-04-18T16:35:30.892Z,61.78
2023-04-18T16:40:32.123Z,62.66
2023-04-18T16:45:33.434Z,62.73
2023-04-18T16:50:35.807Z,62.69
2023-04-18T16:55:37.052Z,63.37
2023-04-18T17:00:38.676Z,63.34
2023-04-18T17:05:40.392Z,62.83
2023-04-18T17:10:41.743Z,62.42
2023-04-18T17:15:43.038Z,62.96
2023-04-18T17:20:44.369Z,63.50
2023-04-18T17:25:46.215Z,63.40
2023-04-18T17:30:47.621Z,63.40
2023-04-18T17:35:48.946Z,63.81
2023-04-18T17:40:50.181Z,64.75
2023-04-18T17:45:51.547Z,65.58
2023-04-18T17:50:52.840Z,65.28
2023-04-18T17:55:55.476Z,65.83
2023-04-18T18:00:56.784Z,65.46
2023-04-18T18:05:58.246Z,65.61
2023-04-18T18:10:59.463Z,65.57
2023-04-18T18:16:00.747Z,65.63
2023-04-18T18:21:02.113Z,65.63
2023-04-18T18:26:04.146Z,67.12
2023-04-18T18:31:05.493Z,66.03
2023-04-18T18:36:06.837Z,66.85
2023-04-18T18:41:08.230Z,66.71
2023-04-18T18:46:09.477Z,67.32
2023-04-18T18:51:11.546Z,67.35
2023-04-18T18:56:12.767Z,67.54
2023-04-18T19:01:14.178Z,67.06
2023-04-18T19:06:15.540Z,66.38
2023-04-18T19:11:18.237Z,66.44
2023-04-18T19:16:19.570Z,66.91
2023-04-18T19:21:20.835Z,66.65
2023-04-18T19:26:23.019Z,66.70
2023-04-18T19:31:24.348Z,67.36
2023-04-18T19:36:26.341Z,67.03
2023-04-18T19:41:27.569Z,67.47
2023-04-18T19:46:28.897Z,68.15
2023-04-18T19:51:30.152Z,68.95
2023-04-18T19:56:31.696Z,68.54
2023-04-18T20:01:33.134Z,68.08
2023-04-18T20:06:34.447Z,69.03
2023-04-18T20:11:35.793Z,69.19
2023-04-18T20:16:37.325Z,69.51
2023-04-18T20:21:38.749Z,69.10
2023-04-18T20:26:40.040Z,68.22
2023-04-18T20:31:42.460Z,68.38
2023-04-18T20:36:43.797Z,68.89
2023-04-18T20:41:48.438Z,69.10
2023-04-18T20:46:49.776Z,69.63
2023-04-18T20:51:51.041Z,69.74
2023-04-18T20:56:52.260Z,69.54
2023-04-18T21:01:53.778Z,70.26
2023-04-18T21:06:55.208Z,70.24
2023-04-18T21:11:58.423Z,69.88
2023-04-18T21:16:59.831Z,69.44
2023-04-18T21:22:01.137Z,69.45
2023-04-18T21:27:02.489Z,70.61
2023-04-18T21:32:03.759Z,70.49
2023-04-18T21:37:05.174Z,70.18
2023-04-18T21:42:06.641Z,69.80
2023-04-18T21:47:07.945Z,70.18
2023-04-18T21:52:09.486Z,71.02
2023-04-18T21:57:10.768Z,70.71
2023-04-18T22:02:12.526Z,70.35
2023-04-18T22:07:15.434Z,70.74
2023-04-18T22:12:16.716Z,70.30
2023-04-18T22:17:17.957Z,70.12
2023-04-18T22:22:19.298Z,69.74
2023-04-18T22:27:20.572Z,70.52
2023-04-18T22:32:21.838Z,71.83
2023-04-18T22:37:23.162Z,71.31
2023-04-18T22:42:24.396Z,70.49
2023-04-18T22:47:25.962Z,70.57
2023-04-18T22:52:27.296Z,71.29
2023-04-18T22:57:28.559Z,71.39
2023-04-18T23:02:29.985Z,70.21
2023-04-18T23:07:31.278Z,70.36
2023-04-18T23:12:32.576Z,70.33
2023-04-18T23:17:34.922Z,70.22
2023-04-18T23:22:36.261Z,69.78
2023-04-18T23:27:37.482Z,70.09
2023-04-18T23:32:38.775Z,70.79
2023-04-18T23:37:40.179Z,70.07
2023-04-18T23:42:42.065Z,69.74
2023-04-18T23:47:43.487Z,70.29
2023-04-18T23:52:44.745Z,69.53
2023-04-18T23:57:46.119Z,69.58
